sensor_id;sensor_type;location;lat;lon;timestamp;P1;durP1;ratioP1;P2;durP2;ratioP2
20379;SDS011;10349;48.666;8.948;2023-08-01T00:00:38;4.20;;;3.67;;
20379;SDS011;10349;48.666;8.948;2023-08-01T00:03:04;4.50;;;2.87;;
20379;SDS011;10349;48.666;8.948;2023-08-01T00:05:30;3.00;;;2.73;;
20379;SDS011;10349;48.666;8.948;2023-08-01T00:07:56;4.23;;;3.83;;
20379;SDS011;10349;48.666;8.948;2023-08-01T00:10:22;3.30;;;3.00;;
20379;SDS011;10349;48.666;8.948;2023-08-01T00:12:48;4.00;;;3.70;;
20379;SDS011;10349;48.666;8.948;2023-08-01T00:15:13;4.33;;;3.17;;
20379;SDS011;10349;48.666;8.948;2023-08-01T00:17:39;3.10;;;2.80;;
20379;SDS011;10349;48.666;8.948;2023-08-01T00:20:06;3.50;;;3.20;;
20379;SDS011;10349;48.666;8.948;2023-08-01T00:22:32;3.90;;;3.20;;
20379;SDS011;10349;48.666;8.948;2023-08-01T00:25:00;4.73;;;3.50;;
20379;SDS011;10349;48.666;8.948;2023-08-01T00:27:26;3.50;;;3.20;;
20379;SDS011;10349;48.666;8.948;2023-08-01T00:29:51;3.30;;;2.70;;
20379;SDS011;10349;48.666;8.948;2023-08-01T00:32:17;4.87;;;3.23;;
20379;SDS011;10349;48.666;8.948;2023-08-01T00:34:43;4.23;;;2.57;;
20379;SDS011;10349;48.666;8.948;2023-08-01T00:37:08;5.23;;;3.67;;
20379;SDS011;10349;48.666;8.948;2023-08-01T00:39:35;3.13;;;2.90;;
20379;SDS011;10349;48.666;8.948;2023-08-01T00:42:01;3.27;;;3.03;;
20379;SDS011;10349;48.666;8.948;2023-08-01T00:44:27;3.20;;;2.90;;
20379;SDS011;10349;48.666;8.948;2023-08-01T00:46:53;3.37;;;2.93;;
20379;SDS011;10349;48.666;8.948;2023-08-01T00:49:19;4.70;;;2.70;;
20379;SDS011;10349;48.666;8.948;2023-08-01T00:51:45;4.17;;;2.77;;
20379;SDS011;10349;48.666;8.948;2023-08-01T00:54:10;3.67;;;2.57;;
20379;SDS011;10349;48.666;8.948;2023-08-01T00:56:36;3.43;;;3.13;;
20379;SDS011;10349;48.666;8.948;2023-08-01T00:59:02;3.73;;;3.40;;
20379;SDS011;10349;48.666;8.948;2023-08-01T01:01:28;6.70;;;2.50;;
20379;SDS011;10349;48.666;8.948;2023-08-01T01:03:54;3.23;;;2.93;;
20379;SDS011;10349;48.666;8.948;2023-08-01T01:06:20;2.83;;;2.53;;
20379;SDS011;10349;48.666;8.948;2023-08-01T01:08:52;3.33;;;3.00;;
20379;SDS011;10349;48.666;8.948;2023-08-01T01:11:20;6.63;;;2.93;;
20379;SDS011;10349;48.666;8.948;2023-08-01T01:13:46;3.87;;;2.40;;
20379;SDS011;10349;48.666;8.948;2023-08-01T01:16:11;2.80;;;2.60;;
20379;SDS011;10349;48.666;8.948;2023-08-01T01:18:37;3.27;;;3.07;;
20379;SDS011;10349;48.666;8.948;2023-08-01T01:21:03;3.90;;;2.90;;
20379;SDS011;10349;48.666;8.948;2023-08-01T01:23:29;5.57;;;3.37;;
20379;SDS011;10349;48.666;8.948;2023-08-01T01:25:56;3.20;;;3.00;;
20379;SDS011;10349;48.666;8.948;2023-08-01T01:28:23;3.07;;;2.80;;
20379;SDS011;10349;48.666;8.948;2023-08-01T01:30:49;4.50;;;3.47;;
20379;SDS011;10349;48.666;8.948;2023-08-01T01:33:18;3.70;;;3.23;;
20379;SDS011;10349;48.666;8.948;2023-08-01T01:35:44;4.57;;;2.83;;
20379;SDS011;10349;48.666;8.948;2023-08-01T01:38:09;3.23;;;2.93;;
20379;SDS011;10349;48.666;8.948;2023-08-01T01:40:36;5.10;;;4.20;;
20379;SDS011;10349;48.666;8.948;2023-08-01T01:43:02;3.10;;;2.80;;
20379;SDS011;10349;48.666;8.948;2023-08-01T01:45:30;4.70;;;3.60;;
20379;SDS011;10349;48.666;8.948;2023-08-01T01:47:55;3.50;;;3.20;;
20379;SDS011;10349;48.666;8.948;2023-08-01T01:50:21;3.43;;;3.10;;
20379;SDS011;10349;48.666;8.948;2023-08-01T01:52:46;4.33;;;3.07;;
20379;SDS011;10349;48.666;8.948;2023-08-01T01:55:12;5.87;;;3.50;;
20379;SDS011;10349;48.666;8.948;2023-08-01T01:57:39;3.50;;;3.20;;
20379;SDS011;10349;48.666;8.948;2023-08-01T02:00:05;3.80;;;3.37;;
20379;SDS011;10349;48.666;8.948;2023-08-01T02:02:38;6.97;;;4.43;;
20379;SDS011;10349;48.666;8.948;2023-08-01T02:05:04;4.90;;;3.40;;
20379;SDS011;10349;48.666;8.948;2023-08-01T02:07:30;3.97;;;3.47;;
20379;SDS011;10349;48.666;8.948;2023-08-01T02:09:55;2.93;;;2.73;;
20379;SDS011;10349;48.666;8.948;2023-08-01T02:12:21;3.83;;;3.40;;
20379;SDS011;10349;48.666;8.948;2023-08-01T02:14:47;4.87;;;3.30;;
20379;SDS011;10349;48.666;8.948;2023-08-01T02:17:13;5.40;;;3.60;;
20379;SDS011;10349;48.666;8.948;2023-08-01T02:19:38;3.63;;;3.17;;
20379;SDS011;10349;48.666;8.948;2023-08-01T02:22:04;4.00;;;3.30;;
20379;SDS011;10349;48.666;8.948;2023-08-01T02:24:30;4.60;;;3.33;;
20379;SDS011;10349;48.666;8.948;2023-08-01T02:26:55;6.63;;;3.30;;
20379;SDS011;10349;48.666;8.948;2023-08-01T02:29:21;3.30;;;2.87;;
20379;SDS011;10349;48.666;8.948;2023-08-01T02:31:47;4.83;;;3.30;;
20379;SDS011;10349;48.666;8.948;2023-08-01T02:34:12;3.50;;;2.90;;
20379;SDS011;10349;48.666;8.948;2023-08-01T02:36:38;2.90;;;2.70;;
20379;SDS011;10349;48.666;8.948;2023-08-01T02:39:06;3.80;;;3.37;;
20379;SDS011;10349;48.666;8.948;2023-08-01T02:41:32;6.73;;;4.23;;
20379;SDS011;10349;48.666;8.948;2023-08-01T02:44:04;3.30;;;3.00;;
20379;SDS011;10349;48.666;8.948;2023-08-01T02:46:30;3.23;;;2.60;;
20379;SDS011;10349;48.666;8.948;2023-08-01T02:48:56;3.13;;;2.73;;
20379;SDS011;10349;48.666;8.948;2023-08-01T02:51:22;3.27;;;2.77;;
20379;SDS011;10349;48.666;8.948;2023-08-01T02:53:47;5.47;;;2.93;;
20379;SDS011;10349;48.666;8.948;2023-08-01T02:56:13;3.97;;;3.23;;
20379;SDS011;10349;48.666;8.948;2023-08-01T02:58:39;3.30;;;3.10;;
20379;SDS011;10349;48.666;8.948;2023-08-01T03:01:08;3.40;;;3.10;;
20379;SDS011;10349;48.666;8.948;2023-08-01T03:03:34;3.60;;;2.47;;
20379;SDS011;10349;48.666;8.948;2023-08-01T03:06:01;3.67;;;3.40;;
20379;SDS011;10349;48.666;8.948;2023-08-01T03:08:27;5.43;;;2.57;;
20379;SDS011;10349;48.666;8.948;2023-08-01T03:10:53;3.47;;;3.20;;
20379;SDS011;10349;48.666;8.948;2023-08-01T03:13:20;4.10;;;2.70;;
20379;SDS011;10349;48.666;8.948;2023-08-01T03:15:46;3.93;;;3.33;;
20379;SDS011;10349;48.666;8.948;2023-08-01T03:18:11;3.60;;;3.30;;
20379;SDS011;10349;48.666;8.948;2023-08-01T03:20:37;3.57;;;3.27;;
20379;SDS011;10349;48.666;8.948;2023-08-01T03:23:03;3.83;;;3.43;;
20379;SDS011;10349;48.666;8.948;2023-08-01T03:25:29;3.20;;;3.00;;
20379;SDS011;10349;48.666;8.948;2023-08-01T03:27:54;3.80;;;3.00;;
20379;SDS011;10349;48.666;8.948;2023-08-01T03:30:22;3.30;;;3.00;;
20379;SDS011;10349;48.666;8.948;2023-08-01T03:32:48;5.30;;;3.50;;
20379;SDS011;10349;48.666;8.948;2023-08-01T03:35:14;4.07;;;3.20;;
20379;SDS011;10349;48.666;8.948;2023-08-01T03:37:40;8.90;;;3.57;;
20379;SDS011;10349;48.666;8.948;2023-08-01T03:40:06;5.60;;;3.37;;
20379;SDS011;10349;48.666;8.948;2023-08-01T03:42:38;3.50;;;3.20;;
20379;SDS011;10349;48.666;8.948;2023-08-01T03:45:05;3.07;;;2.83;;
20379;SDS011;10349;48.666;8.948;2023-08-01T03:47:32;3.30;;;2.80;;
20379;SDS011;10349;48.666;8.948;2023-08-01T03:49:57;4.67;;;3.27;;
20379;SDS011;10349;48.666;8.948;2023-08-01T03:52:23;3.70;;;3.40;;
20379;SDS011;10349;48.666;8.948;2023-08-01T03:54:53;5.87;;;3.13;;
20379;SDS011;10349;48.666;8.948;2023-08-01T03:57:19;3.33;;;2.90;;
20379;SDS011;10349;48.666;8.948;2023-08-01T03:59:47;2.83;;;2.63;;
20379;SDS011;10349;48.666;8.948;2023-08-01T04:02:13;3.33;;;3.03;;
20379;SDS011;10349;48.666;8.948;2023-08-01T04:04:39;6.00;;;2.57;;
20379;SDS011;10349;48.666;8.948;2023-08-01T04:07:04;3.70;;;2.87;;
20379;SDS011;10349;48.666;8.948;2023-08-01T04:09:30;2.67;;;2.13;;
20379;SDS011;10349;48.666;8.948;2023-08-01T04:11:56;3.67;;;3.33;;
20379;SDS011;10349;48.666;8.948;2023-08-01T04:14:22;4.13;;;3.03;;
20379;SDS011;10349;48.666;8.948;2023-08-01T04:16:48;3.17;;;2.73;;
20379;SDS011;10349;48.666;8.948;2023-08-01T04:19:15;7.60;;;3.30;;
20379;SDS011;10349;48.666;8.948;2023-08-01T04:21:41;3.10;;;2.40;;
20379;SDS011;10349;48.666;8.948;2023-08-01T04:24:08;5.80;;;3.30;;
20379;SDS011;10349;48.666;8.948;2023-08-01T04:26:33;2.57;;;2.37;;
20379;SDS011;10349;48.666;8.948;2023-08-01T04:28:59;3.27;;;2.97;;
20379;SDS011;10349;48.666;8.948;2023-08-01T04:31:25;4.53;;;2.70;;
20379;SDS011;10349;48.666;8.948;2023-08-01T04:33:50;4.20;;;2.77;;
20379;SDS011;10349;48.666;8.948;2023-08-01T04:36:16;3.10;;;2.80;;
20379;SDS011;10349;48.666;8.948;2023-08-01T04:38:41;5.03;;;2.83;;
20379;SDS011;10349;48.666;8.948;2023-08-01T04:41:07;6.13;;;3.17;;
20379;SDS011;10349;48.666;8.948;2023-08-01T04:43:33;5.63;;;3.07;;
20379;SDS011;10349;48.666;8.948;2023-08-01T04:45:58;2.87;;;2.67;;
20379;SDS011;10349;48.666;8.948;2023-08-01T04:48:24;3.13;;;2.93;;
20379;SDS011;10349;48.666;8.948;2023-08-01T04:50:49;3.27;;;2.97;;
20379;SDS011;10349;48.666;8.948;2023-08-01T04:53:15;2.77;;;2.57;;
20379;SDS011;10349;48.666;8.948;2023-08-01T04:55:41;3.53;;;2.67;;
20379;SDS011;10349;48.666;8.948;2023-08-01T04:58:06;2.87;;;2.67;;
20379;SDS011;10349;48.666;8.948;2023-08-01T05:00:32;2.70;;;2.50;;
20379;SDS011;10349;48.666;8.948;2023-08-01T05:02:58;3.80;;;2.50;;
20379;SDS011;10349;48.666;8.948;2023-08-01T05:05:23;3.43;;;2.30;;
20379;SDS011;10349;48.666;8.948;2023-08-01T05:07:49;3.20;;;2.90;;
20379;SDS011;10349;48.666;8.948;2023-08-01T05:10:15;4.00;;;3.27;;
20379;SDS011;10349;48.666;8.948;2023-08-01T05:12:40;3.40;;;3.10;;
20379;SDS011;10349;48.666;8.948;2023-08-01T05:15:06;5.23;;;3.30;;
20379;SDS011;10349;48.666;8.948;2023-08-01T05:17:32;4.00;;;3.70;;
20379;SDS011;10349;48.666;8.948;2023-08-01T05:19:58;2.73;;;2.53;;
20379;SDS011;10349;48.666;8.948;2023-08-01T05:22:24;5.30;;;3.50;;
20379;SDS011;10349;48.666;8.948;2023-08-01T05:24:50;3.57;;;3.23;;
20379;SDS011;10349;48.666;8.948;2023-08-01T05:27:16;3.53;;;2.80;;
20379;SDS011;10349;48.666;8.948;2023-08-01T05:29:42;6.00;;;2.80;;
20379;SDS011;10349;48.666;8.948;2023-08-01T05:32:08;7.23;;;4.20;;
20379;SDS011;10349;48.666;8.948;2023-08-01T05:34:33;4.53;;;3.27;;
20379;SDS011;10349;48.666;8.948;2023-08-01T05:36:59;4.53;;;3.07;;
20379;SDS011;10349;48.666;8.948;2023-08-01T05:39:25;4.57;;;3.40;;
20379;SDS011;10349;48.666;8.948;2023-08-01T05:41:50;8.23;;;3.40;;
20379;SDS011;10349;48.666;8.948;2023-08-01T05:44:16;6.03;;;3.53;;
20379;SDS011;10349;48.666;8.948;2023-08-01T05:46:42;3.93;;;3.47;;
20379;SDS011;10349;48.666;8.948;2023-08-01T05:49:07;4.90;;;2.83;;
20379;SDS011;10349;48.666;8.948;2023-08-01T05:51:33;5.73;;;3.10;;
20379;SDS011;10349;48.666;8.948;2023-08-01T05:53:58;3.13;;;2.90;;
20379;SDS011;10349;48.666;8.948;2023-08-01T05:56:24;6.93;;;3.30;;
20379;SDS011;10349;48.666;8.948;2023-08-01T05:58:50;4.23;;;2.77;;
20379;SDS011;10349;48.666;8.948;2023-08-01T06:01:16;3.07;;;2.43;;
20379;SDS011;10349;48.666;8.948;2023-08-01T06:03:42;3.43;;;3.13;;
20379;SDS011;10349;48.666;8.948;2023-08-01T06:06:07;4.07;;;2.87;;
20379;SDS011;10349;48.666;8.948;2023-08-01T06:08:33;3.20;;;2.90;;
20379;SDS011;10349;48.666;8.948;2023-08-01T06:10:59;3.93;;;3.47;;
20379;SDS011;10349;48.666;8.948;2023-08-01T06:13:24;3.10;;;2.77;;
20379;SDS011;10349;48.666;8.948;2023-08-01T06:15:50;12.00;;;3.70;;
20379;SDS011;10349;48.666;8.948;2023-08-01T06:18:16;5.33;;;2.77;;
20379;SDS011;10349;48.666;8.948;2023-08-01T06:20:41;4.33;;;3.30;;
20379;SDS011;10349;48.666;8.948;2023-08-01T06:23:07;4.23;;;3.63;;
20379;SDS011;10349;48.666;8.948;2023-08-01T06:25:33;6.17;;;3.07;;
20379;SDS011;10349;48.666;8.948;2023-08-01T06:27:58;4.07;;;3.77;;
20379;SDS011;10349;48.666;8.948;2023-08-01T06:30:24;8.07;;;4.10;;
20379;SDS011;10349;48.666;8.948;2023-08-01T06:32:50;4.57;;;3.83;;
20379;SDS011;10349;48.666;8.948;2023-08-01T06:35:15;4.50;;;3.23;;
20379;SDS011;10349;48.666;8.948;2023-08-01T06:37:41;6.90;;;4.00;;
20379;SDS011;10349;48.666;8.948;2023-08-01T06:40:07;4.90;;;4.00;;
20379;SDS011;10349;48.666;8.948;2023-08-01T06:42:33;7.40;;;4.63;;
20379;SDS011;10349;48.666;8.948;2023-08-01T06:44:59;7.90;;;4.50;;
20379;SDS011;10349;48.666;8.948;2023-08-01T06:47:24;5.43;;;4.33;;
20379;SDS011;10349;48.666;8.948;2023-08-01T06:49:50;7.10;;;4.90;;
20379;SDS011;10349;48.666;8.948;2023-08-01T06:52:16;5.67;;;4.30;;
20379;SDS011;10349;48.666;8.948;2023-08-01T06:54:41;5.83;;;4.70;;
20379;SDS011;10349;48.666;8.948;2023-08-01T06:57:07;5.57;;;4.33;;
20379;SDS011;10349;48.666;8.948;2023-08-01T06:59:33;4.77;;;4.10;;
20379;SDS011;10349;48.666;8.948;2023-08-01T07:01:59;6.43;;;4.07;;
20379;SDS011;10349;48.666;8.948;2023-08-01T07:04:26;5.57;;;4.20;;
20379;SDS011;10349;48.666;8.948;2023-08-01T07:06:52;6.90;;;3.93;;
20379;SDS011;10349;48.666;8.948;2023-08-01T07:09:18;9.10;;;4.20;;
20379;SDS011;10349;48.666;8.948;2023-08-01T07:11:43;5.27;;;4.57;;
20379;SDS011;10349;48.666;8.948;2023-08-01T07:14:10;4.93;;;3.83;;
20379;SDS011;10349;48.666;8.948;2023-08-01T07:16:36;5.63;;;3.77;;
20379;SDS011;10349;48.666;8.948;2023-08-01T07:19:01;3.97;;;3.50;;
20379;SDS011;10349;48.666;8.948;2023-08-01T07:21:27;4.50;;;3.73;;
20379;SDS011;10349;48.666;8.948;2023-08-01T07:23:54;4.60;;;3.97;;
20379;SDS011;10349;48.666;8.948;2023-08-01T07:26:19;5.53;;;3.40;;
20379;SDS011;10349;48.666;8.948;2023-08-01T07:28:46;5.90;;;3.47;;
20379;SDS011;10349;48.666;8.948;2023-08-01T07:31:12;3.37;;;3.10;;
20379;SDS011;10349;48.666;8.948;2023-08-01T07:33:37;3.10;;;2.43;;
20379;SDS011;10349;48.666;8.948;2023-08-01T07:36:03;3.33;;;3.10;;
20379;SDS011;10349;48.666;8.948;2023-08-01T07:38:29;3.23;;;2.93;;
20379;SDS011;10349;48.666;8.948;2023-08-01T07:41:01;3.73;;;2.43;;
20379;SDS011;10349;48.666;8.948;2023-08-01T07:43:30;4.00;;;2.33;;
20379;SDS011;10349;48.666;8.948;2023-08-01T07:45:57;3.27;;;2.33;;
20379;SDS011;10349;48.666;8.948;2023-08-01T07:48:23;2.37;;;2.03;;
20379;SDS011;10349;48.666;8.948;2023-08-01T07:50:48;2.50;;;2.30;;
20379;SDS011;10349;48.666;8.948;2023-08-01T07:53:14;2.23;;;2.03;;
20379;SDS011;10349;48.666;8.948;2023-08-01T07:55:40;3.17;;;2.03;;
20379;SDS011;10349;48.666;8.948;2023-08-01T07:58:06;2.40;;;2.20;;
20379;SDS011;10349;48.666;8.948;2023-08-01T08:00:32;2.20;;;1.97;;
20379;SDS011;10349;48.666;8.948;2023-08-01T08:03:00;7.00;;;2.50;;
20379;SDS011;10349;48.666;8.948;2023-08-01T08:05:25;4.03;;;2.27;;
20379;SDS011;10349;48.666;8.948;2023-08-01T08:07:51;2.30;;;2.10;;
20379;SDS011;10349;48.666;8.948;2023-08-01T08:10:17;2.30;;;2.10;;
20379;SDS011;10349;48.666;8.948;2023-08-01T08:12:42;3.13;;;2.93;;
20379;SDS011;10349;48.666;8.948;2023-08-01T08:15:08;3.27;;;2.10;;
20379;SDS011;10349;48.666;8.948;2023-08-01T08:17:34;3.03;;;2.33;;
20379;SDS011;10349;48.666;8.948;2023-08-01T08:19:59;2.03;;;1.83;;
20379;SDS011;10349;48.666;8.948;2023-08-01T08:22:25;3.03;;;2.80;;
20379;SDS011;10349;48.666;8.948;2023-08-01T08:24:51;2.03;;;1.87;;
20379;SDS011;10349;48.666;8.948;2023-08-01T08:27:17;2.63;;;2.43;;
20379;SDS011;10349;48.666;8.948;2023-08-01T08:29:42;2.47;;;2.27;;
20379;SDS011;10349;48.666;8.948;2023-08-01T08:32:08;2.87;;;2.67;;
20379;SDS011;10349;48.666;8.948;2023-08-01T08:34:33;2.57;;;2.23;;
20379;SDS011;10349;48.666;8.948;2023-08-01T08:36:59;2.90;;;2.63;;
20379;SDS011;10349;48.666;8.948;2023-08-01T08:39:25;2.87;;;2.67;;
20379;SDS011;10349;48.666;8.948;2023-08-01T08:41:52;7.60;;;3.30;;
20379;SDS011;10349;48.666;8.948;2023-08-01T08:44:21;2.57;;;2.37;;
20379;SDS011;10349;48.666;8.948;2023-08-01T08:46:50;2.53;;;2.33;;
20379;SDS011;10349;48.666;8.948;2023-08-01T08:49:17;3.20;;;3.00;;
20379;SDS011;10349;48.666;8.948;2023-08-01T08:51:47;2.07;;;1.87;;
20379;SDS011;10349;48.666;8.948;2023-08-01T08:54:14;2.83;;;2.63;;
20379;SDS011;10349;48.666;8.948;2023-08-01T08:56:41;3.20;;;2.47;;
20379;SDS011;10349;48.666;8.948;2023-08-01T08:59:10;4.70;;;2.20;;
20379;SDS011;10349;48.666;8.948;2023-08-01T09:01:36;5.57;;;3.27;;
20379;SDS011;10349;48.666;8.948;2023-08-01T09:04:03;2.50;;;2.30;;
20379;SDS011;10349;48.666;8.948;2023-08-01T09:06:32;3.47;;;1.87;;
20379;SDS011;10349;48.666;8.948;2023-08-01T09:09:12;1.97;;;1.87;;
20379;SDS011;10349;48.666;8.948;2023-08-01T09:11:49;2.03;;;1.90;;
20379;SDS011;10349;48.666;8.948;2023-08-01T09:14:16;1.80;;;1.70;;
20379;SDS011;10349;48.666;8.948;2023-08-01T09:16:42;1.67;;;1.50;;
20379;SDS011;10349;48.666;8.948;2023-08-01T09:19:08;1.87;;;1.77;;
20379;SDS011;10349;48.666;8.948;2023-08-01T09:21:36;1.07;;;0.97;;
20379;SDS011;10349;48.666;8.948;2023-08-01T09:24:19;3.13;;;1.83;;
20379;SDS011;10349;48.666;8.948;2023-08-01T09:26:46;1.83;;;0.80;;
20379;SDS011;10349;48.666;8.948;2023-08-01T09:29:15;0.90;;;0.60;;
20379;SDS011;10349;48.666;8.948;2023-08-01T09:31:42;1.10;;;0.80;;
20379;SDS011;10349;48.666;8.948;2023-08-01T09:34:25;0.80;;;0.60;;
20379;SDS011;10349;48.666;8.948;2023-08-01T09:36:57;1.00;;;0.73;;
20379;SDS011;10349;48.666;8.948;2023-08-01T09:39:23;1.10;;;0.77;;
20379;SDS011;10349;48.666;8.948;2023-08-01T09:41:56;1.00;;;0.70;;
20379;SDS011;10349;48.666;8.948;2023-08-01T09:44:26;1.03;;;0.77;;
20379;SDS011;10349;48.666;8.948;2023-08-01T09:47:00;1.00;;;0.73;;
20379;SDS011;10349;48.666;8.948;2023-08-01T09:49:29;1.20;;;0.80;;
20379;SDS011;10349;48.666;8.948;2023-08-01T09:51:56;1.50;;;0.90;;
20379;SDS011;10349;48.666;8.948;2023-08-01T09:54:24;1.07;;;0.90;;
20379;SDS011;10349;48.666;8.948;2023-08-01T09:56:50;0.90;;;0.70;;
20379;SDS011;10349;48.666;8.948;2023-08-01T09:59:18;0.90;;;0.70;;
20379;SDS011;10349;48.666;8.948;2023-08-01T10:01:46;1.87;;;1.00;;
20379;SDS011;10349;48.666;8.948;2023-08-01T10:04:15;1.07;;;0.80;;
20379;SDS011;10349;48.666;8.948;2023-08-01T10:06:58;1.00;;;0.60;;
20379;SDS011;10349;48.666;8.948;2023-08-01T10:09:36;0.90;;;0.63;;
20379;SDS011;10349;48.666;8.948;2023-08-01T10:12:03;0.93;;;0.70;;
20379;SDS011;10349;48.666;8.948;2023-08-01T10:14:31;0.87;;;0.70;;
20379;SDS011;10349;48.666;8.948;2023-08-01T10:16:57;1.00;;;0.63;;
20379;SDS011;10349;48.666;8.948;2023-08-01T10:19:23;1.00;;;0.63;;
20379;SDS011;10349;48.666;8.948;2023-08-01T10:21:50;0.90;;;0.60;;
20379;SDS011;10349;48.666;8.948;2023-08-01T10:24:16;1.00;;;0.70;;
20379;SDS011;10349;48.666;8.948;2023-08-01T10:26:46;1.00;;;0.70;;
20379;SDS011;10349;48.666;8.948;2023-08-01T10:29:12;1.80;;;0.70;;
20379;SDS011;10349;48.666;8.948;2023-08-01T10:31:38;1.00;;;0.80;;
20379;SDS011;10349;48.666;8.948;2023-08-01T10:34:13;1.30;;;1.13;;
20379;SDS011;10349;48.666;8.948;2023-08-01T10:36:39;1.10;;;0.80;;
20379;SDS011;10349;48.666;8.948;2023-08-01T10:39:04;0.80;;;0.60;;
20379;SDS011;10349;48.666;8.948;2023-08-01T10:41:31;0.90;;;0.70;;
20379;SDS011;10349;48.666;8.948;2023-08-01T10:44:05;1.20;;;1.10;;
20379;SDS011;10349;48.666;8.948;2023-08-01T10:49:18;0.97;;;0.60;;
20379;SDS011;10349;48.666;8.948;2023-08-01T10:51:47;2.90;;;1.20;;
20379;SDS011;10349;48.666;8.948;2023-08-01T10:54:22;1.13;;;1.00;;
20379;SDS011;10349;48.666;8.948;2023-08-01T10:56:53;1.00;;;0.90;;
20379;SDS011;10349;48.666;8.948;2023-08-01T10:59:21;1.10;;;0.97;;
20379;SDS011;10349;48.666;8.948;2023-08-01T11:01:48;1.53;;;0.93;;
20379;SDS011;10349;48.666;8.948;2023-08-01T11:04:18;1.07;;;0.87;;
20379;SDS011;10349;48.666;8.948;2023-08-01T11:06:49;1.90;;;1.10;;
20379;SDS011;10349;48.666;8.948;2023-08-01T11:09:23;1.37;;;1.20;;
20379;SDS011;10349;48.666;8.948;2023-08-01T11:11:57;1.30;;;0.93;;
20379;SDS011;10349;48.666;8.948;2023-08-01T11:14:28;1.20;;;1.10;;
20379;SDS011;10349;48.666;8.948;2023-08-01T11:16:57;1.20;;;0.90;;
20379;SDS011;10349;48.666;8.948;2023-08-01T11:19:24;1.73;;;0.77;;
20379;SDS011;10349;48.666;8.948;2023-08-01T11:21:53;1.10;;;0.90;;
20379;SDS011;10349;48.666;8.948;2023-08-01T11:24:25;1.03;;;0.93;;
20379;SDS011;10349;48.666;8.948;2023-08-01T11:26:52;1.20;;;1.10;;
20379;SDS011;10349;48.666;8.948;2023-08-01T11:29:19;0.97;;;0.80;;
20379;SDS011;10349;48.666;8.948;2023-08-01T11:31:58;1.20;;;1.10;;
20379;SDS011;10349;48.666;8.948;2023-08-01T11:34:25;1.40;;;1.27;;
20379;SDS011;10349;48.666;8.948;2023-08-01T11:36:51;1.07;;;0.97;;
20379;SDS011;10349;48.666;8.948;2023-08-01T11:39:20;1.40;;;0.97;;
20379;SDS011;10349;48.666;8.948;2023-08-01T11:41:47;1.20;;;1.10;;
20379;SDS011;10349;48.666;8.948;2023-08-01T11:44:13;3.83;;;1.40;;
20379;SDS011;10349;48.666;8.948;2023-08-01T11:46:39;1.47;;;1.37;;
20379;SDS011;10349;48.666;8.948;2023-08-01T11:49:06;4.37;;;1.13;;
20379;SDS011;10349;48.666;8.948;2023-08-01T11:51:43;2.43;;;1.67;;
20379;SDS011;10349;48.666;8.948;2023-08-01T11:54:09;4.80;;;1.13;;
20379;SDS011;10349;48.666;8.948;2023-08-01T11:56:40;1.00;;;0.90;;
20379;SDS011;10349;48.666;8.948;2023-08-01T11:59:10;1.30;;;1.20;;
20379;SDS011;10349;48.666;8.948;2023-08-01T12:01:41;1.57;;;1.03;;
20379;SDS011;10349;48.666;8.948;2023-08-01T12:04:11;1.10;;;1.00;;
20379;SDS011;10349;48.666;8.948;2023-08-01T12:06:37;2.03;;;1.10;;
20379;SDS011;10349;48.666;8.948;2023-08-01T12:09:11;1.50;;;1.00;;
20379;SDS011;10349;48.666;8.948;2023-08-01T12:11:38;3.20;;;1.40;;
20379;SDS011;10349;48.666;8.948;2023-08-01T12:14:06;1.93;;;1.07;;
20379;SDS011;10349;48.666;8.948;2023-08-01T12:16:35;3.33;;;1.10;;
20379;SDS011;10349;48.666;8.948;2023-08-01T12:19:05;2.80;;;1.33;;
20379;SDS011;10349;48.666;8.948;2023-08-01T12:21:31;3.33;;;1.30;;
20379;SDS011;10349;48.666;8.948;2023-08-01T12:23:58;1.10;;;0.90;;
20379;SDS011;10349;48.666;8.948;2023-08-01T12:26:24;2.40;;;1.07;;
20379;SDS011;10349;48.666;8.948;2023-08-01T12:28:50;1.30;;;1.20;;
20379;SDS011;10349;48.666;8.948;2023-08-01T12:31:19;1.53;;;1.20;;
20379;SDS011;10349;48.666;8.948;2023-08-01T12:33:46;1.00;;;0.87;;
20379;SDS011;10349;48.666;8.948;2023-08-01T12:36:12;1.20;;;0.97;;
20379;SDS011;10349;48.666;8.948;2023-08-01T12:38:38;1.00;;;0.80;;
20379;SDS011;10349;48.666;8.948;2023-08-01T12:41:04;1.20;;;1.00;;
20379;SDS011;10349;48.666;8.948;2023-08-01T12:43:31;1.23;;;0.83;;
20379;SDS011;10349;48.666;8.948;2023-08-01T12:45:56;1.73;;;1.40;;
20379;SDS011;10349;48.666;8.948;2023-08-01T12:48:23;1.40;;;1.07;;
20379;SDS011;10349;48.666;8.948;2023-08-01T12:50:51;2.33;;;1.27;;
20379;SDS011;10349;48.666;8.948;2023-08-01T12:53:17;1.43;;;1.20;;
20379;SDS011;10349;48.666;8.948;2023-08-01T12:55:43;1.00;;;0.90;;
20379;SDS011;10349;48.666;8.948;2023-08-01T12:58:10;2.90;;;1.73;;
20379;SDS011;10349;48.666;8.948;2023-08-01T13:00:36;1.63;;;1.13;;
20379;SDS011;10349;48.666;8.948;2023-08-01T13:03:02;1.77;;;1.40;;
20379;SDS011;10349;48.666;8.948;2023-08-01T13:05:29;1.20;;;1.10;;
20379;SDS011;10349;48.666;8.948;2023-08-01T13:07:55;3.43;;;1.40;;
20379;SDS011;10349;48.666;8.948;2023-08-01T13:10:21;2.13;;;1.33;;
20379;SDS011;10349;48.666;8.948;2023-08-01T13:12:46;1.27;;;1.17;;
20379;SDS011;10349;48.666;8.948;2023-08-01T13:15:13;1.30;;;1.20;;
20379;SDS011;10349;48.666;8.948;2023-08-01T13:17:39;1.40;;;1.30;;
20379;SDS011;10349;48.666;8.948;2023-08-01T13:20:05;1.40;;;1.30;;
20379;SDS011;10349;48.666;8.948;2023-08-01T13:22:31;1.60;;;1.47;;
20379;SDS011;10349;48.666;8.948;2023-08-01T13:24:57;1.93;;;1.20;;
20379;SDS011;10349;48.666;8.948;2023-08-01T13:27:23;1.43;;;1.20;;
20379;SDS011;10349;48.666;8.948;2023-08-01T13:29:48;5.43;;;1.03;;
20379;SDS011;10349;48.666;8.948;2023-08-01T13:32:17;3.53;;;1.17;;
20379;SDS011;10349;48.666;8.948;2023-08-01T13:34:42;2.13;;;1.20;;
20379;SDS011;10349;48.666;8.948;2023-08-01T13:37:09;2.33;;;1.27;;
20379;SDS011;10349;48.666;8.948;2023-08-01T13:39:35;2.47;;;1.83;;
20379;SDS011;10349;48.666;8.948;2023-08-01T13:42:00;1.17;;;1.07;;
20379;SDS011;10349;48.666;8.948;2023-08-01T13:44:26;1.90;;;1.80;;
20379;SDS011;10349;48.666;8.948;2023-08-01T13:46:52;2.60;;;1.73;;
20379;SDS011;10349;48.666;8.948;2023-08-01T13:49:18;1.33;;;1.23;;
20379;SDS011;10349;48.666;8.948;2023-08-01T13:51:44;2.37;;;1.87;;
20379;SDS011;10349;48.666;8.948;2023-08-01T13:54:18;4.30;;;1.40;;
20379;SDS011;10349;48.666;8.948;2023-08-01T13:56:43;1.43;;;1.33;;
20379;SDS011;10349;48.666;8.948;2023-08-01T13:59:09;1.47;;;1.37;;
20379;SDS011;10349;48.666;8.948;2023-08-01T14:01:38;2.30;;;1.67;;
20379;SDS011;10349;48.666;8.948;2023-08-01T14:04:04;6.83;;;1.63;;
20379;SDS011;10349;48.666;8.948;2023-08-01T14:06:32;3.50;;;1.60;;
20379;SDS011;10349;48.666;8.948;2023-08-01T14:08:58;1.93;;;1.60;;
20379;SDS011;10349;48.666;8.948;2023-08-01T14:11:24;2.83;;;1.57;;
20379;SDS011;10349;48.666;8.948;2023-08-01T14:13:50;1.53;;;1.43;;
20379;SDS011;10349;48.666;8.948;2023-08-01T14:16:15;1.50;;;1.40;;
20379;SDS011;10349;48.666;8.948;2023-08-01T14:18:43;1.30;;;1.20;;
20379;SDS011;10349;48.666;8.948;2023-08-01T14:21:12;1.80;;;1.20;;
20379;SDS011;10349;48.666;8.948;2023-08-01T14:23:37;1.43;;;1.33;;
20379;SDS011;10349;48.666;8.948;2023-08-01T14:26:06;1.23;;;1.13;;
20379;SDS011;10349;48.666;8.948;2023-08-01T14:28:32;1.20;;;1.00;;
20379;SDS011;10349;48.666;8.948;2023-08-01T14:31:00;1.93;;;1.30;;
20379;SDS011;10349;48.666;8.948;2023-08-01T14:33:27;1.50;;;1.40;;
20379;SDS011;10349;48.666;8.948;2023-08-01T14:35:53;1.40;;;1.30;;
20379;SDS011;10349;48.666;8.948;2023-08-01T14:38:19;1.53;;;1.20;;
20379;SDS011;10349;48.666;8.948;2023-08-01T14:40:44;1.30;;;1.20;;
20379;SDS011;10349;48.666;8.948;2023-08-01T14:43:10;1.13;;;0.87;;
20379;SDS011;10349;48.666;8.948;2023-08-01T14:45:37;3.53;;;1.17;;
20379;SDS011;10349;48.666;8.948;2023-08-01T14:48:04;1.30;;;0.93;;